sensor_id;sensor_type;location;lat;lon;timestamp;P1;durP1;ratioP1;P2;durP2;ratioP2
73452;SDS011;61687;56.232;43.854;2022-09-12T00:01:12;11.73;;;7.72;;
73452;SDS011;61687;56.232;43.854;2022-09-12T00:03:40;13.23;;;7.75;;
73452;SDS011;61687;56.232;43.854;2022-09-12T00:06:17;12.85;;;8.27;;
73452;SDS011;61687;56.232;43.854;2022-09-12T00:08:47;11.60;;;8.20;;
73452;SDS011;61687;56.232;43.854;2022-09-12T00:11:13;10.77;;;7.45;;
73452;SDS011;61687;56.232;43.854;2022-09-12T00:13:40;11.18;;;7.50;;
73452;SDS011;61687;56.232;43.854;2022-09-12T00:16:13;12.95;;;8.52;;
73452;SDS011;61687;56.232;43.854;2022-09-12T00:18:40;14.70;;;8.38;;
73452;SDS011;61687;56.232;43.854;2022-09-12T00:21:06;14.23;;;8.63;;
73452;SDS011;61687;56.232;43.854;2022-09-12T00:23:32;13.60;;;9.05;;
73452;SDS011;61687;56.232;43.854;2022-09-12T00:25:58;11.48;;;8.15;;
73452;SDS011;61687;56.232;43.854;2022-09-12T00:28:24;13.23;;;8.57;;
73452;SDS011;61687;56.232;43.854;2022-09-12T00:30:50;14.20;;;8.57;;
73452;SDS011;61687;56.232;43.854;2022-09-12T00:33:16;12.85;;;8.10;;
73452;SDS011;61687;56.232;43.854;2022-09-12T00:35:43;14.98;;;8.88;;
73452;SDS011;61687;56.232;43.854;2022-09-12T00:38:11;15.20;;;8.95;;
73452;SDS011;61687;56.232;43.854;2022-09-12T00:40:38;15.97;;;9.17;;
73452;SDS011;61687;56.232;43.854;2022-09-12T00:43:04;13.27;;;8.07;;
73452;SDS011;61687;56.232;43.854;2022-09-12T00:45:31;14.18;;;9.25;;
73452;SDS011;61687;56.232;43.854;2022-09-12T00:47:57;15.63;;;9.13;;
73452;SDS011;61687;56.232;43.854;2022-09-12T00:50:26;15.30;;;9.15;;
73452;SDS011;61687;56.232;43.854;2022-09-12T00:52:55;13.43;;;8.83;;
73452;SDS011;61687;56.232;43.854;2022-09-12T00:55:27;15.43;;;8.80;;
73452;SDS011;61687;56.232;43.854;2022-09-12T00:58:04;14.70;;;8.32;;
73452;SDS011;61687;56.232;43.854;2022-09-12T01:00:38;15.05;;;8.57;;
73452;SDS011;61687;56.232;43.854;2022-09-12T01:03:05;16.03;;;8.77;;
73452;SDS011;61687;56.232;43.854;2022-09-12T01:05:35;14.02;;;7.82;;
73452;SDS011;61687;56.232;43.854;2022-09-12T01:08:04;14.80;;;9.27;;
73452;SDS011;61687;56.232;43.854;2022-09-12T01:10:32;11.38;;;7.50;;
73452;SDS011;61687;56.232;43.854;2022-09-12T01:13:00;13.15;;;8.65;;
73452;SDS011;61687;56.232;43.854;2022-09-12T01:15:29;12.73;;;7.30;;
73452;SDS011;61687;56.232;43.854;2022-09-12T01:17:59;11.85;;;7.57;;
73452;SDS011;61687;56.232;43.854;2022-09-12T01:30:03;14.20;;;7.23;;
73452;SDS011;61687;56.232;43.854;2022-09-12T01:41:10;13.18;;;8.40;;
73452;SDS011;61687;56.232;43.854;2022-09-12T01:44:01;12.97;;;8.07;;
73452;SDS011;61687;56.232;43.854;2022-09-12T01:49:22;12.20;;;7.55;;
73452;SDS011;61687;56.232;43.854;2022-09-12T01:52:03;12.80;;;7.55;;
73452;SDS011;61687;56.232;43.854;2022-09-12T01:54:48;15.80;;;8.45;;
73452;SDS011;61687;56.232;43.854;2022-09-12T01:57:29;12.10;;;8.27;;
73452;SDS011;61687;56.232;43.854;2022-09-12T02:00:03;14.15;;;8.38;;
73452;SDS011;61687;56.232;43.854;2022-09-12T02:05:29;12.57;;;7.57;;
73452;SDS011;61687;56.232;43.854;2022-09-12T02:08:01;13.90;;;8.43;;
73452;SDS011;61687;56.232;43.854;2022-09-12T02:10:30;11.80;;;7.33;;
73452;SDS011;61687;56.232;43.854;2022-09-12T02:13:06;13.38;;;7.90;;
73452;SDS011;61687;56.232;43.854;2022-09-12T02:15:44;13.98;;;8.18;;
73452;SDS011;61687;56.232;43.854;2022-09-12T02:18:15;12.25;;;8.10;;
73452;SDS011;61687;56.232;43.854;2022-09-12T02:20:45;12.13;;;8.15;;
73452;SDS011;61687;56.232;43.854;2022-09-12T02:23:14;12.90;;;7.50;;
73452;SDS011;61687;56.232;43.854;2022-09-12T02:25:45;13.88;;;8.50;;
73452;SDS011;61687;56.232;43.854;2022-09-12T02:28:21;12.65;;;8.27;;
73452;SDS011;61687;56.232;43.854;2022-09-12T02:30:55;14.65;;;8.90;;
73452;SDS011;61687;56.232;43.854;2022-09-12T02:33:47;16.63;;;8.43;;
73452;SDS011;61687;56.232;43.854;2022-09-12T02:36:31;14.77;;;7.80;;
73452;SDS011;61687;56.232;43.854;2022-09-12T02:39:10;13.20;;;7.97;;
73452;SDS011;61687;56.232;43.854;2022-09-12T02:41:36;16.75;;;8.60;;
73452;SDS011;61687;56.232;43.854;2022-09-12T02:44:03;12.77;;;8.00;;
73452;SDS011;61687;56.232;43.854;2022-09-12T02:46:32;15.10;;;8.32;;
73452;SDS011;61687;56.232;43.854;2022-09-12T02:49:05;12.20;;;7.87;;
73452;SDS011;61687;56.232;43.854;2022-09-12T02:51:31;13.05;;;7.50;;
73452;SDS011;61687;56.232;43.854;2022-09-12T02:53:57;13.70;;;8.70;;
73452;SDS011;61687;56.232;43.854;2022-09-12T02:56:27;13.35;;;7.70;;
73452;SDS011;61687;56.232;43.854;2022-09-12T02:58:56;12.13;;;8.35;;
73452;SDS011;61687;56.232;43.854;2022-09-12T03:16:03;12.60;;;7.73;;
73452;SDS011;61687;56.232;43.854;2022-09-12T03:26:43;11.85;;;7.72;;
73452;SDS011;61687;56.232;43.854;2022-09-12T03:29:17;14.93;;;7.87;;
73452;SDS011;61687;56.232;43.854;2022-09-12T03:31:49;12.32;;;7.60;;
73452;SDS011;61687;56.232;43.854;2022-09-12T03:34:16;12.98;;;7.18;;
73452;SDS011;61687;56.232;43.854;2022-09-12T03:36:43;12.25;;;7.40;;
73452;SDS011;61687;56.232;43.854;2022-09-12T03:39:08;13.88;;;8.38;;
73452;SDS011;61687;56.232;43.854;2022-09-12T03:41:34;13.97;;;7.83;;
73452;SDS011;61687;56.232;43.854;2022-09-12T03:44:01;14.63;;;8.07;;
73452;SDS011;61687;56.232;43.854;2022-09-12T03:46:27;16.92;;;7.40;;
73452;SDS011;61687;56.232;43.854;2022-09-12T03:48:53;11.95;;;7.70;;
73452;SDS011;61687;56.232;43.854;2022-09-12T03:51:19;13.20;;;7.07;;
73452;SDS011;61687;56.232;43.854;2022-09-12T03:53:45;13.43;;;8.30;;
73452;SDS011;61687;56.232;43.854;2022-09-12T03:56:12;11.65;;;7.25;;
73452;SDS011;61687;56.232;43.854;2022-09-12T03:58:39;13.75;;;7.63;;
73452;SDS011;61687;56.232;43.854;2022-09-12T04:01:08;14.02;;;8.35;;
73452;SDS011;61687;56.232;43.854;2022-09-12T04:03:37;12.23;;;7.43;;
73452;SDS011;61687;56.232;43.854;2022-09-12T04:06:05;11.52;;;7.68;;
73452;SDS011;61687;56.232;43.854;2022-09-12T04:08:32;13.40;;;8.15;;
73452;SDS011;61687;56.232;43.854;2022-09-12T04:11:06;16.30;;;7.20;;
73452;SDS011;61687;56.232;43.854;2022-09-12T04:13:34;12.50;;;7.85;;
73452;SDS011;61687;56.232;43.854;2022-09-12T04:16:03;12.63;;;7.40;;
73452;SDS011;61687;56.232;43.854;2022-09-12T04:18:30;17.92;;;8.40;;
73452;SDS011;61687;56.232;43.854;2022-09-12T04:20:56;16.95;;;7.97;;
73452;SDS011;61687;56.232;43.854;2022-09-12T04:23:22;16.85;;;7.75;;
73452;SDS011;61687;56.232;43.854;2022-09-12T04:25:56;14.10;;;7.15;;
73452;SDS011;61687;56.232;43.854;2022-09-12T04:28:24;13.90;;;8.17;;
73452;SDS011;61687;56.232;43.854;2022-09-12T04:30:50;11.20;;;7.28;;
73452;SDS011;61687;56.232;43.854;2022-09-12T04:33:17;13.02;;;7.18;;
73452;SDS011;61687;56.232;43.854;2022-09-12T04:35:43;11.65;;;7.47;;
73452;SDS011;61687;56.232;43.854;2022-09-12T04:38:09;14.45;;;8.25;;
73452;SDS011;61687;56.232;43.854;2022-09-12T04:40:36;13.67;;;8.00;;
73452;SDS011;61687;56.232;43.854;2022-09-12T04:43:02;11.63;;;7.45;;
73452;SDS011;61687;56.232;43.854;2022-09-12T04:45:31;13.30;;;7.63;;
73452;SDS011;61687;56.232;43.854;2022-09-12T04:47:58;16.38;;;8.68;;
73452;SDS011;61687;56.232;43.854;2022-09-12T04:50:24;14.65;;;9.13;;
73452;SDS011;61687;56.232;43.854;2022-09-12T04:52:50;14.60;;;9.13;;
73452;SDS011;61687;56.232;43.854;2022-09-12T04:55:17;17.30;;;8.48;;
73452;SDS011;61687;56.232;43.854;2022-09-12T04:57:44;14.80;;;8.63;;
73452;SDS011;61687;56.232;43.854;2022-09-12T05:00:10;12.10;;;7.72;;
73452;SDS011;61687;56.232;43.854;2022-09-12T05:02:40;13.87;;;8.47;;
73452;SDS011;61687;56.232;43.854;2022-09-12T05:05:06;12.77;;;7.68;;
73452;SDS011;61687;56.232;43.854;2022-09-12T05:07:33;13.73;;;7.53;;
73452;SDS011;61687;56.232;43.854;2022-09-12T05:09:59;12.77;;;7.72;;
73452;SDS011;61687;56.232;43.854;2022-09-12T05:12:26;17.38;;;7.35;;
73452;SDS011;61687;56.232;43.854;2022-09-12T05:14:52;14.20;;;7.83;;
73452;SDS011;61687;56.232;43.854;2022-09-12T05:17:18;13.98;;;7.90;;
73452;SDS011;61687;56.232;43.854;2022-09-12T05:19:44;13.88;;;8.23;;
73452;SDS011;61687;56.232;43.854;2022-09-12T05:22:10;12.10;;;7.47;;
73452;SDS011;61687;56.232;43.854;2022-09-12T05:24:36;12.35;;;7.47;;
73452;SDS011;61687;56.232;43.854;2022-09-12T05:27:04;12.75;;;8.13;;
73452;SDS011;61687;56.232;43.854;2022-09-12T05:29:30;13.68;;;8.65;;
73452;SDS011;61687;56.232;43.854;2022-09-12T05:31:56;11.60;;;7.43;;
73452;SDS011;61687;56.232;43.854;2022-09-12T05:34:22;13.07;;;7.55;;
73452;SDS011;61687;56.232;43.854;2022-09-12T05:36:48;11.88;;;7.40;;
73452;SDS011;61687;56.232;43.854;2022-09-12T05:39:14;14.43;;;8.40;;
73452;SDS011;61687;56.232;43.854;2022-09-12T05:41:40;14.68;;;7.93;;
73452;SDS011;61687;56.232;43.854;2022-09-12T05:44:09;14.20;;;8.27;;
73452;SDS011;61687;56.232;43.854;2022-09-12T05:46:38;13.63;;;8.30;;
73452;SDS011;61687;56.232;43.854;2022-09-12T05:49:06;12.70;;;8.47;;
73452;SDS011;61687;56.232;43.854;2022-09-12T05:51:35;14.40;;;8.02;;
73452;SDS011;61687;56.232;43.854;2022-09-12T05:54:03;12.93;;;8.50;;
73452;SDS011;61687;56.232;43.854;2022-09-12T05:56:31;14.52;;;7.45;;
73452;SDS011;61687;56.232;43.854;2022-09-12T05:58:59;13.65;;;8.27;;
73452;SDS011;61687;56.232;43.854;2022-09-12T06:01:28;13.17;;;7.60;;
73452;SDS011;61687;56.232;43.854;2022-09-12T06:03:55;10.93;;;7.45;;
73452;SDS011;61687;56.232;43.854;2022-09-12T06:06:25;14.52;;;9.57;;
73452;SDS011;61687;56.232;43.854;2022-09-12T06:08:53;18.25;;;7.93;;
73452;SDS011;61687;56.232;43.854;2022-09-12T06:11:24;16.63;;;10.00;;
73452;SDS011;61687;56.232;43.854;2022-09-12T06:13:52;20.53;;;9.23;;
73452;SDS011;61687;56.232;43.854;2022-09-12T06:16:23;16.00;;;9.88;;
73452;SDS011;61687;56.232;43.854;2022-09-12T06:18:52;15.77;;;9.52;;
73452;SDS011;61687;56.232;43.854;2022-09-12T06:21:19;20.90;;;9.73;;
73452;SDS011;61687;56.232;43.854;2022-09-12T06:23:46;19.05;;;10.00;;
73452;SDS011;61687;56.232;43.854;2022-09-12T06:26:13;20.57;;;11.43;;
73452;SDS011;61687;56.232;43.854;2022-09-12T06:28:42;21.00;;;9.73;;
73452;SDS011;61687;56.232;43.854;2022-09-12T06:31:11;18.65;;;10.82;;
73452;SDS011;61687;56.232;43.854;2022-09-12T06:33:59;14.32;;;8.70;;
73452;SDS011;61687;56.232;43.854;2022-09-12T06:36:28;15.45;;;8.88;;
73452;SDS011;61687;56.232;43.854;2022-09-12T06:38:59;17.83;;;8.70;;
73452;SDS011;61687;56.232;43.854;2022-09-12T06:41:28;20.17;;;9.50;;
73452;SDS011;61687;56.232;43.854;2022-09-12T06:43:56;26.23;;;10.38;;
73452;SDS011;61687;56.232;43.854;2022-09-12T06:46:23;12.27;;;7.85;;
73452;SDS011;61687;56.232;43.854;2022-09-12T06:48:49;16.92;;;7.95;;
73452;SDS011;61687;56.232;43.854;2022-09-12T06:51:16;15.60;;;8.43;;
73452;SDS011;61687;56.232;43.854;2022-09-12T06:53:44;12.63;;;7.43;;
73452;SDS011;61687;56.232;43.854;2022-09-12T06:56:12;17.80;;;8.40;;
73452;SDS011;61687;56.232;43.854;2022-09-12T06:58:40;11.80;;;7.57;;
73452;SDS011;61687;56.232;43.854;2022-09-12T07:01:11;12.35;;;7.38;;
73452;SDS011;61687;56.232;43.854;2022-09-12T07:03:40;16.53;;;7.37;;
73452;SDS011;61687;56.232;43.854;2022-09-12T07:06:12;11.07;;;6.18;;
73452;SDS011;61687;56.232;43.854;2022-09-12T07:08:40;13.07;;;7.57;;
73452;SDS011;61687;56.232;43.854;2022-09-12T07:11:07;13.15;;;7.43;;
73452;SDS011;61687;56.232;43.854;2022-09-12T07:13:47;10.88;;;7.10;;
73452;SDS011;61687;56.232;43.854;2022-09-12T07:16:14;12.30;;;5.90;;
73452;SDS011;61687;56.232;43.854;2022-09-12T07:18:41;11.18;;;6.38;;
73452;SDS011;61687;56.232;43.854;2022-09-12T07:21:11;13.88;;;6.85;;
73452;SDS011;61687;56.232;43.854;2022-09-12T07:23:39;14.98;;;6.75;;
73452;SDS011;61687;56.232;43.854;2022-09-12T07:26:06;10.65;;;6.40;;
73452;SDS011;61687;56.232;43.854;2022-09-12T07:28:35;11.63;;;6.50;;
73452;SDS011;61687;56.232;43.854;2022-09-12T07:31:06;11.15;;;6.28;;
73452;SDS011;61687;56.232;43.854;2022-09-12T07:33:35;11.63;;;7.20;;
73452;SDS011;61687;56.232;43.854;2022-09-12T07:36:06;11.65;;;6.53;;
73452;SDS011;61687;56.232;43.854;2022-09-12T07:38:36;9.80;;;6.50;;
73452;SDS011;61687;56.232;43.854;2022-09-12T07:41:16;10.27;;;5.87;;
73452;SDS011;61687;56.232;43.854;2022-09-12T07:43:44;9.15;;;5.53;;
73452;SDS011;61687;56.232;43.854;2022-09-12T07:46:10;8.85;;;5.88;;
73452;SDS011;61687;56.232;43.854;2022-09-12T07:48:37;10.65;;;5.32;;
73452;SDS011;61687;56.232;43.854;2022-09-12T07:51:05;7.70;;;5.50;;
73452;SDS011;61687;56.232;43.854;2022-09-12T07:53:33;10.27;;;6.00;;
73452;SDS011;61687;56.232;43.854;2022-09-12T07:56:02;9.25;;;5.72;;
73452;SDS011;61687;56.232;43.854;2022-09-12T07:58:30;8.80;;;6.18;;
73452;SDS011;61687;56.232;43.854;2022-09-12T08:01:03;9.98;;;6.35;;
73452;SDS011;61687;56.232;43.854;2022-09-12T08:03:35;10.38;;;6.13;;
73452;SDS011;61687;56.232;43.854;2022-09-12T08:06:11;7.83;;;5.40;;
73452;SDS011;61687;56.232;43.854;2022-09-12T08:08:39;10.70;;;5.65;;
73452;SDS011;61687;56.232;43.854;2022-09-12T08:11:06;18.67;;;6.53;;
73452;SDS011;61687;56.232;43.854;2022-09-12T08:13:34;14.88;;;6.30;;
73452;SDS011;61687;56.232;43.854;2022-09-12T08:16:03;20.88;;;8.10;;
73452;SDS011;61687;56.232;43.854;2022-09-12T08:18:49;10.43;;;6.60;;
73452;SDS011;61687;56.232;43.854;2022-09-12T08:21:20;9.35;;;6.25;;
73452;SDS011;61687;56.232;43.854;2022-09-12T08:23:50;9.90;;;6.15;;
73452;SDS011;61687;56.232;43.854;2022-09-12T08:26:18;9.27;;;5.53;;
73452;SDS011;61687;56.232;43.854;2022-09-12T08:28:44;7.90;;;4.60;;
73452;SDS011;61687;56.232;43.854;2022-09-12T08:31:11;5.47;;;3.90;;
73452;SDS011;61687;56.232;43.854;2022-09-12T08:33:39;8.70;;;3.75;;
73452;SDS011;61687;56.232;43.854;2022-09-12T08:36:15;5.85;;;4.05;;
73452;SDS011;61687;56.232;43.854;2022-09-12T08:38:44;6.47;;;4.40;;
73452;SDS011;61687;56.232;43.854;2022-09-12T08:49:37;6.43;;;4.35;;
73452;SDS011;61687;56.232;43.854;2022-09-12T08:55:22;8.38;;;4.10;;
73452;SDS011;61687;56.232;43.854;2022-09-12T08:58:00;9.90;;;4.60;;
73452;SDS011;61687;56.232;43.854;2022-09-12T09:00:47;7.10;;;4.53;;
73452;SDS011;61687;56.232;43.854;2022-09-12T09:03:52;5.47;;;4.20;;
73452;SDS011;61687;56.232;43.854;2022-09-12T09:06:36;6.60;;;4.32;;
73452;SDS011;61687;56.232;43.854;2022-09-12T09:17:54;8.25;;;4.70;;
73452;SDS011;61687;56.232;43.854;2022-09-12T09:20:33;7.30;;;4.70;;
73452;SDS011;61687;56.232;43.854;2022-09-12T09:26:05;8.40;;;5.70;;
73452;SDS011;61687;56.232;43.854;2022-09-12T09:28:35;6.50;;;4.38;;
73452;SDS011;61687;56.232;43.854;2022-09-12T09:31:02;7.00;;;3.95;;
73452;SDS011;61687;56.232;43.854;2022-09-12T09:33:30;7.55;;;4.22;;
73452;SDS011;61687;56.232;43.854;2022-09-12T09:38:49;6.07;;;3.90;;
73452;SDS011;61687;56.232;43.854;2022-09-12T09:44:02;11.13;;;3.90;;
73452;SDS011;61687;56.232;43.854;2022-09-12T09:46:28;7.05;;;4.13;;
73452;SDS011;61687;56.232;43.854;2022-09-12T09:48:54;7.00;;;4.10;;
73452;SDS011;61687;56.232;43.854;2022-09-12T09:51:27;6.00;;;3.80;;
73452;SDS011;61687;56.232;43.854;2022-09-12T09:56:45;6.35;;;4.57;;
73452;SDS011;61687;56.232;43.854;2022-09-12T10:01:47;6.97;;;3.60;;
73452;SDS011;61687;56.232;43.854;2022-09-12T10:04:29;6.50;;;4.10;;
73452;SDS011;61687;56.232;43.854;2022-09-12T10:06:57;5.22;;;3.65;;
73452;SDS011;61687;56.232;43.854;2022-09-12T10:09:27;6.95;;;4.68;;
73452;SDS011;61687;56.232;43.854;2022-09-12T10:11:57;7.17;;;4.17;;
73452;SDS011;61687;56.232;43.854;2022-09-12T10:14:31;6.13;;;4.22;;
73452;SDS011;61687;56.232;43.854;2022-09-12T10:17:19;8.00;;;5.15;;
73452;SDS011;61687;56.232;43.854;2022-09-12T10:19:55;7.88;;;5.40;;
73452;SDS011;61687;56.232;43.854;2022-09-12T10:22:23;7.30;;;5.47;;
73452;SDS011;61687;56.232;43.854;2022-09-12T10:24:53;9.47;;;5.03;;
73452;SDS011;61687;56.232;43.854;2022-09-12T10:27:23;6.10;;;4.97;;
73452;SDS011;61687;56.232;43.854;2022-09-12T10:32:25;6.75;;;4.55;;
73452;SDS011;61687;56.232;43.854;2022-09-12T10:34:58;7.75;;;5.22;;
73452;SDS011;61687;56.232;43.854;2022-09-12T10:37:32;8.97;;;4.40;;
73452;SDS011;61687;56.232;43.854;2022-09-12T10:40:00;8.35;;;4.80;;
73452;SDS011;61687;56.232;43.854;2022-09-12T10:45:19;7.35;;;4.10;;
73452;SDS011;61687;56.232;43.854;2022-09-12T10:47:51;5.57;;;3.88;;
73452;SDS011;61687;56.232;43.854;2022-09-12T10:50:19;6.30;;;3.60;;
73452;SDS011;61687;56.232;43.854;2022-09-12T10:52:50;5.15;;;3.80;;
73452;SDS011;61687;56.232;43.854;2022-09-12T10:55:17;5.38;;;3.40;;
73452;SDS011;61687;56.232;43.854;2022-09-12T10:57:54;4.38;;;3.28;;
73452;SDS011;61687;56.232;43.854;2022-09-12T11:00:22;4.70;;;3.47;;
73452;SDS011;61687;56.232;43.854;2022-09-12T11:08:05;21.40;;;4.28;;
73452;SDS011;61687;56.232;43.854;2022-09-12T11:11:11;16.30;;;4.15;;
73452;SDS011;61687;56.232;43.854;2022-09-12T11:14:01;7.93;;;3.70;;
73452;SDS011;61687;56.232;43.854;2022-09-12T11:24:47;5.25;;;3.60;;
73452;SDS011;61687;56.232;43.854;2022-09-12T11:30:15;6.33;;;3.40;;
73452;SDS011;61687;56.232;43.854;2022-09-12T11:33:00;7.20;;;3.58;;
73452;SDS011;61687;56.232;43.854;2022-09-12T11:35:32;5.20;;;3.83;;
73452;SDS011;61687;56.232;43.854;2022-09-12T11:41:46;5.00;;;3.10;;
73452;SDS011;61687;56.232;43.854;2022-09-12T11:44:18;5.00;;;3.03;;
73452;SDS011;61687;56.232;43.854;2022-09-12T11:46:48;6.32;;;3.58;;
73452;SDS011;61687;56.232;43.854;2022-09-12T11:49:37;5.18;;;3.28;;
73452;SDS011;61687;56.232;43.854;2022-09-12T11:52:10;5.00;;;3.33;;
73452;SDS011;61687;56.232;43.854;2022-09-12T11:57:32;5.97;;;3.40;;
73452;SDS011;61687;56.232;43.854;2022-09-12T12:00:16;6.40;;;3.78;;
73452;SDS011;61687;56.232;43.854;2022-09-12T12:05:39;5.80;;;3.20;;
73452;SDS011;61687;56.232;43.854;2022-09-12T12:08:12;5.28;;;3.35;;
73452;SDS011;61687;56.232;43.854;2022-09-12T12:10:40;5.83;;;3.43;;
73452;SDS011;61687;56.232;43.854;2022-09-12T12:13:16;5.45;;;4.22;;
73452;SDS011;61687;56.232;43.854;2022-09-12T12:15:51;4.43;;;3.42;;
73452;SDS011;61687;56.232;43.854;2022-09-12T12:18:26;5.32;;;3.78;;
73452;SDS011;61687;56.232;43.854;2022-09-12T12:20:53;4.65;;;3.53;;
73452;SDS011;61687;56.232;43.854;2022-09-12T12:26:02;5.05;;;3.67;;
73452;SDS011;61687;56.232;43.854;2022-09-12T12:31:07;11.70;;;3.70;;
73452;SDS011;61687;56.232;43.854;2022-09-12T12:36:09;6.07;;;3.47;;
73452;SDS011;61687;56.232;43.854;2022-09-12T12:38:54;5.53;;;3.90;;
73452;SDS011;61687;56.232;43.854;2022-09-12T12:43:48;6.30;;;4.05;;
73452;SDS011;61687;56.232;43.854;2022-09-12T12:46:19;6.23;;;4.57;;
73452;SDS011;61687;56.232;43.854;2022-09-12T12:55:12;6.47;;;4.65;;
73452;SDS011;61687;56.232;43.854;2022-09-12T12:57:22;6.10;;;4.25;;
73452;SDS011;61687;56.232;43.854;2022-09-12T13:02:41;5.57;;;4.13;;
73452;SDS011;61687;56.232;43.854;2022-09-12T13:05:23;7.07;;;4.50;;
73452;SDS011;61687;56.232;43.854;2022-09-12T13:07:55;7.30;;;4.75;;
73452;SDS011;61687;56.232;43.854;2022-09-12T13:10:25;7.38;;;4.43;;
73452;SDS011;61687;56.232;43.854;2022-09-12T13:12:56;6.07;;;4.00;;
73452;SDS011;61687;56.232;43.854;2022-09-12T13:18:05;7.53;;;4.45;;
73452;SDS011;61687;56.232;43.854;2022-09-12T13:20:37;8.23;;;4.35;;
73452;SDS011;61687;56.232;43.854;2022-09-12T13:23:29;10.98;;;3.65;;
73452;SDS011;61687;56.232;43.854;2022-09-12T13:25:57;7.67;;;4.53;;
73452;SDS011;61687;56.232;43.854;2022-09-12T13:28:25;7.03;;;4.97;;
73452;SDS011;61687;56.232;43.854;2022-09-12T13:33:55;6.88;;;4.10;;
73452;SDS011;61687;56.232;43.854;2022-09-12T13:41:51;5.72;;;3.60;;
73452;SDS011;61687;56.232;43.854;2022-09-12T13:44:27;6.10;;;3.92;;
73452;SDS011;61687;56.232;43.854;2022-09-12T13:46:57;8.48;;;3.65;;
73452;SDS011;61687;56.232;43.854;2022-09-12T13:49:27;8.52;;;3.85;;
73452;SDS011;61687;56.232;43.854;2022-09-12T13:54:49;6.80;;;3.72;;
73452;SDS011;61687;56.232;43.854;2022-09-12T13:57:29;6.32;;;3.38;;
73452;SDS011;61687;56.232;43.854;2022-09-12T13:59:56;5.78;;;3.20;;
73452;SDS011;61687;56.232;43.854;2022-09-12T14:02:23;5.10;;;3.50;;
73452;SDS011;61687;56.232;43.854;2022-09-12T14:04:52;7.43;;;3.33;;
73452;SDS011;61687;56.232;43.854;2022-09-12T14:10:36;5.35;;;3.40;;
73452;SDS011;61687;56.232;43.854;2022-09-12T14:15:45;5.22;;;3.50;;
73452;SDS011;61687;56.232;43.854;2022-09-12T14:20:52;6.43;;;3.55;;
73452;SDS011;61687;56.232;43.854;2022-09-12T14:23:28;5.55;;;3.50;;
73452;SDS011;61687;56.232;43.854;2022-09-12T14:25:59;7.40;;;3.72;;
73452;SDS011;61687;56.232;43.854;2022-09-12T14:28:28;5.72;;;3.30;;
73452;SDS011;61687;56.232;43.854;2022-09-12T14:31:04;4.87;;;3.30;;
73452;SDS011;61687;56.232;43.854;2022-09-12T14:33:50;6.00;;;3.53;;
73452;SDS011;61687;56.232;43.854;2022-09-12T14:36:22;7.53;;;4.00;;
73452;SDS011;61687;56.232;43.854;2022-09-12T14:38:53;6.68;;;3.92;;
73452;SDS011;61687;56.232;43.854;2022-09-12T14:41:23;5.10;;;3.65;;
73452;SDS011;61687;56.232;43.854;2022-09-12T14:43:54;13.80;;;7.37;;
73452;SDS011;61687;56.232;43.854;2022-09-12T14:49:00;9.27;;;4.20;;
73452;SDS011;61687;56.232;43.854;2022-09-12T14:51:34;6.72;;;3.88;;
73452;SDS011;61687;56.232;43.854;2022-09-12T14:54:05;6.93;;;4.18;;
73452;SDS011;61687;56.232;43.854;2022-09-12T14:56:39;7.57;;;4.30;;
73452;SDS011;61687;56.232;43.854;2022-09-12T14:59:19;7.30;;;4.20;;
73452;SDS011;61687;56.232;43.854;2022-09-12T15:04:47;9.80;;;4.78;;
73452;SDS011;61687;56.232;43.854;2022-09-12T15:07:28;6.78;;;4.28;;
73452;SDS011;61687;56.232;43.854;2022-09-12T15:09:59;10.27;;;4.50;;
73452;SDS011;61687;56.232;43.854;2022-09-12T15:12:29;11.25;;;4.95;;
73452;SDS011;61687;56.232;43.854;2022-09-12T15:15:05;9.82;;;4.97;;
73452;SDS011;61687;56.232;43.854;2022-09-12T15:17:39;11.73;;;5.07;;
73452;SDS011;61687;56.232;43.854;2022-09-12T15:20:05;11.73;;;5.63;;
73452;SDS011;61687;56.232;43.854;2022-09-12T15:22:31;11.67;;;4.97;;
73452;SDS011;61687;56.232;43.854;2022-09-12T15:24:59;9.70;;;5.38;;
73452;SDS011;61687;56.232;43.854;2022-09-12T15:27:25;15.95;;;6.10;;
73452;SDS011;61687;56.232;43.854;2022-09-12T15:29:51;9.88;;;6.32;;
73452;SDS011;61687;56.232;43.854;2022-09-12T15:32:22;15.23;;;6.97;;
73452;SDS011;61687;56.232;43.854;2022-09-12T15:34:52;14.77;;;6.50;;
73452;SDS011;61687;56.232;43.854;2022-09-12T15:37:19;23.48;;;6.65;;
73452;SDS011;61687;56.232;43.854;2022-09-12T15:39:47;14.50;;;6.70;;
73452;SDS011;61687;56.232;43.854;2022-09-12T15:42:13;17.42;;;6.63;;
73452;SDS011;61687;56.232;43.854;2022-09-12T15:44:40;17.42;;;6.45;;
73452;SDS011;61687;56.232;43.854;2022-09-12T15:47:08;26.27;;;6.60;;
73452;SDS011;61687;56.232;43.854;2022-09-12T15:49:36;29.98;;;7.97;;
73452;SDS011;61687;56.232;43.854;2022-09-12T15:52:02;16.63;;;7.30;;
73452;SDS011;61687;56.232;43.854;2022-09-12T15:54:28;16.23;;;6.57;;
73452;SDS011;61687;56.232;43.854;2022-09-12T15:56:54;16.90;;;7.50;;
73452;SDS011;61687;56.232;43.854;2022-09-12T15:59:20;20.40;;;7.03;;
73452;SDS011;61687;56.232;43.854;2022-09-12T16:01:46;21.33;;;8.23;;
73452;SDS011;61687;56.232;43.854;2022-09-12T16:04:21;15.68;;;7.78;;
73452;SDS011;61687;56.232;43.854;2022-09-12T16:06:51;19.27;;;7.40;;
73452;SDS011;61687;56.232;43.854;2022-09-12T16:09:19;12.60;;;8.40;;
73452;SDS011;61687;56.232;43.854;2022-09-12T16:11:45;13.82;;;7.78;;
73452;SDS011;61687;56.232;43.854;2022-09-12T16:14:15;17.50;;;7.47;;
73452;SDS011;61687;56.232;43.854;2022-09-12T16:16:43;16.17;;;7.88;;
73452;SDS011;61687;56.232;43.854;2022-09-12T16:19:09;15.50;;;7.67;;
73452;SDS011;61687;56.232;43.854;2022-09-12T16:21:37;15.60;;;8.10;;
73452;SDS011;61687;56.232;43.854;2022-09-12T16:24:03;17.13;;;9.38;;
73452;SDS011;61687;56.232;43.854;2022-09-12T16:26:29;24.58;;;10.02;;
73452;SDS011;61687;56.232;43.854;2022-09-12T16:28:56;20.73;;;9.52;;
73452;SDS011;61687;56.232;43.854;2022-09-12T16:31:23;17.53;;;9.33;;
73452;SDS011;61687;56.232;43.854;2022-09-12T16:33:49;17.63;;;8.98;;
73452;SDS011;61687;56.232;43.854;2022-09-12T16:36:19;19.55;;;8.85;;
73452;SDS011;61687;56.232;43.854;2022-09-12T16:38:47;16.23;;;9.13;;
73452;SDS011;61687;56.232;43.854;2022-09-12T16:41:15;19.25;;;9.27;;
73452;SDS011;61687;56.232;43.854;2022-09-12T16:43:42;24.87;;;8.93;;
73452;SDS011;61687;56.232;43.854;2022-09-12T16:46:16;17.35;;;8.45;;
73452;SDS011;61687;56.232;43.854;2022-09-12T16:48:45;17.38;;;8.57;;
73452;SDS011;61687;56.232;43.854;2022-09-12T16:51:16;16.33;;;8.25;;
73452;SDS011;61687;56.232;43.854;2022-09-12T16:53:44;19.25;;;8.88;;
73452;SDS011;61687;56.232;43.854;2022-09-12T16:56:11;19.37;;;8.97;;
73452;SDS011;61687;56.232;43.854;2022-09-12T16:58:39;17.30;;;9.35;;
73452;SDS011;61687;56.232;43.854;2022-09-12T17:01:10;16.33;;;9.45;;
73452;SDS011;61687;56.232;43.854;2022-09-12T17:03:37;14.55;;;7.75;;
73452;SDS011;61687;56.232;43.854;2022-09-12T17:06:08;20.88;;;9.60;;
73452;SDS011;61687;56.232;43.854;2022-09-12T17:08:42;14.33;;;8.40;;
73452;SDS011;61687;56.232;43.854;2022-09-12T17:11:11;16.48;;;8.43;;
73452;SDS011;61687;56.232;43.854;2022-09-12T17:13:39;19.48;;;7.13;;
73452;SDS011;61687;56.232;43.854;2022-09-12T17:16:06;16.25;;;7.82;;
73452;SDS011;61687;56.232;43.854;2022-09-12T17:18:36;16.17;;;7.80;;
73452;SDS011;61687;56.232;43.854;2022-09-12T17:21:02;16.67;;;7.87;;
73452;SDS011;61687;56.232;43.854;2022-09-12T17:23:30;15.45;;;8.02;;